Altair, Texas
Current Conditions -  °F | °C
As of 9:55 PM on Friday 31 Oct 2014 (Local Time) from K66R Reporting Station
Clear Clear  
Wind Chill: 60°   Ceiling: Unl
Heat Index: 60°   Visibility: 10mi
Dew Point: 43°   Wind: 7mph
Humidity: 54%   Direction: 20°NNE
Pressure: 30.27"   Gusts: NA
Location:  29.57°N, 96.45°W
Report Text: K66R 010255Z AUTO 02006KT 10SM CLR 16/06 A3027 RMK AO2 T01550062
Loading
Personal Weather Stations






























Interactive Weather Map
Tropical Storm Tracking
New forecast layout! Learn more

10-Day Weather Forecast

Advertisements
Track Severe Weather on mobile